レシフェ の空港の天気 - METARとTAF

レシフェ・グアララペス国際空港 ( SBRF / REC ) - ブラジル ペルナンブーコ州レシフェ
飛行場実況気象(Metar)
観測時間10/16 03:00 BRT (10/16 06:00 UTC)
風向・風速北北東 3m/s
視程10km以上
天気現象
全天の8割程度の雲 雲底高度 610m
全天の8割程度の雲 雲底高度 1620m
気温26℃
湿度79%
気圧1011hPa
METARSBRF 160600Z 03005KT 9999 BKN020 BKN053 26/22 Q1011
過去の天気等 Google飛行場航空写真 Wunderground天気予報

過去48時間のMETAR

飛行場予報(TAF)
発表時間: 10/15 23:00 BRT (10/16 02:00 UTC)
予報対象時間: 16日3時 BRT ~ 17日3時 BRT
風向・風速東 4m/s
視程9000m
全天の4割程度の雲 雲底高度 670m
TAF SBRF 160200Z 1606/1706 08007KT 9000 SCT022 TN24/1608Z TX28/1615Z RMK PBO